createdAt,value
2023-04-26T00:00:09.040Z,5.50
2023-04-26T00:02:37.364Z,5.60
2023-04-26T00:05:06.026Z,5.60
2023-04-26T00:07:35.881Z,5.60
2023-04-26T00:10:03.869Z,5.60
2023-04-26T00:12:32.198Z,5.50
2023-04-26T00:15:00.227Z,5.40
2023-04-26T00:17:28.226Z,5.40
2023-04-26T00:19:57.546Z,5.40
2023-04-26T00:22:26.536Z,5.30
2023-04-26T00:24:56.114Z,5.30
2023-04-26T00:27:24.897Z,5.30
2023-04-26T00:29:52.894Z,5.30
2023-04-26T00:32:21.241Z,5.40
2023-04-26T00:34:49.290Z,5.40
2023-04-26T00:37:19.369Z,5.40
2023-04-26T00:39:47.371Z,5.50
2023-04-26T00:42:17.520Z,5.50
2023-04-26T00:44:45.480Z,5.60
2023-04-26T00:47:13.861Z,5.50
2023-04-26T00:49:42.289Z,5.60
2023-04-26T00:52:11.406Z,5.60
2023-04-26T00:54:39.724Z,5.50
2023-04-26T00:57:09.777Z,5.60
2023-04-26T00:59:39.268Z,5.60
2023-04-26T01:02:08.062Z,5.60
2023-04-26T01:04:37.276Z,5.60
2023-04-26T01:07:06.108Z,5.50
2023-04-26T01:09:35.053Z,5.60
2023-04-26T01:12:04.041Z,5.50
2023-04-26T01:14:32.982Z,5.50
2023-04-26T01:17:03.617Z,5.50
2023-04-26T01:19:32.470Z,5.40
2023-04-26T01:22:00.925Z,5.30
2023-04-26T01:24:30.286Z,5.20
2023-04-26T01:26:59.134Z,5.10
2023-04-26T01:29:27.857Z,5.00
2023-04-26T01:31:58.335Z,4.90
2023-04-26T01:34:29.588Z,4.80
2023-04-26T01:36:58.463Z,4.80
2023-04-26T01:39:31.058Z,4.70
2023-04-26T01:41:59.972Z,4.60
2023-04-26T01:44:28.017Z,4.60
2023-04-26T01:46:56.842Z,4.60
2023-04-26T01:49:25.828Z,4.60
2023-04-26T01:51:56.334Z,4.60
2023-04-26T01:54:25.323Z,4.50
2023-04-26T01:56:56.069Z,4.50
2023-04-26T01:59:24.071Z,4.50
2023-04-26T02:01:52.695Z,4.40
2023-04-26T02:04:20.737Z,4.40
2023-04-26T02:06:49.440Z,4.30
2023-04-26T02:09:18.294Z,4.30
2023-04-26T02:11:46.726Z,4.20
2023-04-26T02:14:16.197Z,4.20
2023-04-26T02:16:45.256Z,4.20
2023-04-26T02:19:15.336Z,4.00
2023-04-26T02:21:54.146Z,4.10
2023-04-26T02:24:23.163Z,4.10
2023-04-26T02:26:51.996Z,4.00
2023-04-26T02:29:29.812Z,4.00
2023-04-26T02:32:05.612Z,4.00
2023-04-26T02:34:33.867Z,4.00
2023-04-26T02:37:02.987Z,4.00
2023-04-26T02:39:31.569Z,3.90
2023-04-26T02:42:00.742Z,3.90
2023-04-26T02:44:31.867Z,3.80
2023-04-26T02:47:00.513Z,3.60
2023-04-26T02:49:29.202Z,3.60
2023-04-26T02:51:57.664Z,3.60
2023-04-26T02:54:25.994Z,3.50
2023-04-26T02:56:55.352Z,3.50
2023-04-26T02:59:23.402Z,3.50
2023-04-26T03:01:53.320Z,3.40
2023-04-26T03:04:21.345Z,3.40
2023-04-26T03:06:49.871Z,3.40
2023-04-26T03:09:17.893Z,3.40
2023-04-26T03:11:47.771Z,3.30
2023-04-26T03:14:17.906Z,3.30
2023-04-26T03:16:48.521Z,3.30
2023-04-26T03:19:18.128Z,3.30
2023-04-26T03:21:47.621Z,3.30
2023-04-26T03:24:16.000Z,3.30
2023-04-26T03:26:44.468Z,3.30
2023-04-26T03:29:12.664Z,3.20
2023-04-26T03:31:41.151Z,3.20
2023-04-26T03:34:09.366Z,3.20
2023-04-26T03:36:39.497Z,3.20
2023-04-26T03:39:07.499Z,3.20
2023-04-26T03:41:39.782Z,3.20
2023-04-26T03:44:10.243Z,3.10
2023-04-26T03:46:40.749Z,3.10
2023-04-26T03:49:08.776Z,3.10
2023-04-26T03:51:37.663Z,3.10
2023-04-26T03:54:07.350Z,3.10
2023-04-26T03:56:37.115Z,3.10
2023-04-26T03:59:05.353Z,3.10
2023-04-26T04:01:34.476Z,3.10
2023-04-26T04:04:02.879Z,3.10
2023-04-26T04:06:31.526Z,3.10
2023-04-26T04:08:59.541Z,3.10
2023-04-26T04:11:30.057Z,3.00
2023-04-26T04:13:58.085Z,3.00
2023-04-26T04:16:26.651Z,3.00
2023-04-26T04:18:55.051Z,3.10
2023-04-26T04:21:24.342Z,3.10
2023-04-26T04:23:53.404Z,3.10
2023-04-26T04:26:22.771Z,3.10
2023-04-26T04:28:53.734Z,3.10
2023-04-26T04:31:23.219Z,3.10
2023-04-26T04:33:51.510Z,3.10
2023-04-26T04:36:19.938Z,3.10
2023-04-26T04:38:48.030Z,3.10
2023-04-26T04:41:19.132Z,3.20
2023-04-26T04:43:47.763Z,3.20
2023-04-26T04:46:17.995Z,3.20
2023-04-26T04:48:46.423Z,3.30
2023-04-26T04:51:15.021Z,3.30
2023-04-26T04:53:43.273Z,3.30
2023-04-26T04:56:12.429Z,3.40
2023-04-26T04:58:40.504Z,3.40
2023-04-26T05:01:09.491Z,3.40
2023-04-26T05:03:51.352Z,3.50
2023-04-26T05:06:20.510Z,3.60
2023-04-26T05:08:48.708Z,3.70
2023-04-26T05:11:18.294Z,3.90
2023-04-26T05:13:47.410Z,4.10
2023-04-26T05:16:15.612Z,4.40
2023-04-26T05:18:43.779Z,4.60
2023-04-26T05:21:13.587Z,4.80
2023-04-26T05:23:41.676Z,5.00
2023-04-26T05:26:11.686Z,5.10
2023-04-26T05:28:45.870Z,5.30
2023-04-26T05:31:40.229Z,5.50
2023-04-26T05:34:22.113Z,5.70
2023-04-26T05:36:56.958Z,5.80
2023-04-26T05:39:25.295Z,5.90
2023-04-26T05:41:53.785Z,6.00
2023-04-26T05:44:21.794Z,6.20
2023-04-26T05:46:50.312Z,6.40
2023-04-26T05:49:18.364Z,6.40
2023-04-26T05:51:46.764Z,6.60
2023-04-26T05:54:16.165Z,6.70
2023-04-26T05:56:44.899Z,6.80
2023-04-26T05:59:13.782Z,7.00
2023-04-26T06:01:42.586Z,7.20
2023-04-26T06:04:11.002Z,7.30
2023-04-26T06:07:08.797Z,7.50
2023-04-26T06:09:38.302Z,7.70
2023-04-26T06:12:07.445Z,7.80
2023-04-26T06:14:38.507Z,7.90
2023-04-26T06:17:11.530Z,8.50
2023-04-26T06:19:39.598Z,9.60
2023-04-26T06:22:08.444Z,10.50
2023-04-26T06:24:37.889Z,11.30
2023-04-26T06:27:06.828Z,11.90
2023-04-26T06:29:36.192Z,12.20
2023-04-26T06:32:04.740Z,12.50
2023-04-26T06:34:34.380Z,12.60
2023-04-26T06:37:02.752Z,12.70
2023-04-26T06:39:31.977Z,12.90
2023-04-26T06:42:02.023Z,13.10
2023-04-26T06:44:48.669Z,13.60
2023-04-26T06:47:18.318Z,13.90
2023-04-26T06:49:47.289Z,14.00
2023-04-26T06:52:15.949Z,14.20
2023-04-26T06:54:55.938Z,14.50
2023-04-26T06:57:26.799Z,14.80
2023-04-26T06:59:55.619Z,15.30
2023-04-26T07:02:24.620Z,15.40
2023-04-26T07:04:53.564Z,15.70
2023-04-26T07:07:22.003Z,16.20
2023-04-26T07:09:51.129Z,16.20
2023-04-26T07:12:19.222Z,15.70
2023-04-26T07:14:49.206Z,14.70
2023-04-26T07:17:17.222Z,14.90
2023-04-26T07:19:45.606Z,15.60
2023-04-26T07:22:13.634Z,15.00
2023-04-26T07:24:42.081Z,13.60
2023-04-26T07:27:10.112Z,12.70
2023-04-26T07:29:38.550Z,12.00
2023-04-26T07:32:08.279Z,12.00
2023-04-26T07:34:37.533Z,13.40
2023-04-26T07:37:05.626Z,14.40
2023-04-26T07:39:34.049Z,15.20
2023-04-26T07:42:03.030Z,16.00
2023-04-26T07:44:31.435Z,15.60
2023-04-26T07:46:59.486Z,14.30
2023-04-26T07:49:29.523Z,13.50
2023-04-26T07:51:58.814Z,13.00
2023-04-26T07:54:27.265Z,12.20
2023-04-26T07:56:55.557Z,11.70
2023-04-26T07:59:24.003Z,11.70
2023-04-26T08:01:52.105Z,11.50
2023-04-26T08:04:33.167Z,12.10
2023-04-26T08:07:02.775Z,12.40
2023-04-26T08:09:31.386Z,13.10
2023-04-26T08:11:59.529Z,13.10
2023-04-26T08:14:27.620Z,12.70
2023-04-26T08:16:55.707Z,12.80
2023-04-26T08:19:24.278Z,12.90
2023-04-26T08:21:52.374Z,12.70
2023-04-26T08:24:22.210Z,12.40
2023-04-26T08:26:50.246Z,12.10
2023-04-26T08:29:19.131Z,12.40
2023-04-26T08:31:47.201Z,12.70
2023-04-26T08:34:16.065Z,13.60
2023-04-26T08:36:44.201Z,14.60
2023-04-26T08:39:13.466Z,15.30
2023-04-26T08:41:46.924Z,15.00
2023-04-26T08:44:15.833Z,15.00
2023-04-26T08:46:48.343Z,14.30
2023-04-26T08:49:23.623Z,13.50
2023-04-26T08:51:52.621Z,13.00
2023-04-26T08:54:21.605Z,12.40
2023-04-26T08:56:51.164Z,11.90
2023-04-26T08:59:21.335Z,12.00
2023-04-26T09:01:49.986Z,13.10
2023-04-26T09:04:18.641Z,14.40
2023-04-26T09:06:47.213Z,14.90
2023-04-26T09:09:18.732Z,14.90
2023-04-26T09:11:55.760Z,14.70
2023-04-26T09:14:24.377Z,14.20
2023-04-26T09:16:53.117Z,13.80
2023-04-26T09:19:36.325Z,13.40
2023-04-26T09:22:04.976Z,13.30
2023-04-26T09:24:47.848Z,13.00
2023-04-26T09:27:17.846Z,13.20
2023-04-26T09:29:59.120Z,13.40
2023-04-26T09:32:27.630Z,13.30
2023-04-26T09:34:56.240Z,13.30
2023-04-26T09:37:24.281Z,13.40
2023-04-26T09:39:52.779Z,13.40
2023-04-26T09:42:22.187Z,13.20
2023-04-26T09:44:52.210Z,13.10
2023-04-26T09:47:23.065Z,13.10
2023-04-26T09:49:52.519Z,12.80
2023-04-26T09:52:20.726Z,12.50
2023-04-26T09:54:50.170Z,12.30
2023-04-26T09:57:19.703Z,12.40
2023-04-26T09:59:50.578Z,12.50
2023-04-26T10:02:21.033Z,12.70
2023-04-26T10:04:51.453Z,12.70
2023-04-26T10:07:20.283Z,12.80
2023-04-26T10:09:49.144Z,13.10
2023-04-26T10:12:17.906Z,13.50
2023-04-26T10:14:47.066Z,13.60
2023-04-26T10:17:16.947Z,13.40
2023-04-26T10:19:46.936Z,13.20
2023-04-26T10:22:18.494Z,12.80
2023-04-26T10:24:47.284Z,12.40
2023-04-26T10:27:16.286Z,12.30
2023-04-26T10:30:10.069Z,12.40
2023-04-26T10:32:56.654Z,12.60
2023-04-26T10:35:27.052Z,12.80
2023-04-26T10:38:10.483Z,13.00
2023-04-26T10:40:39.913Z,13.30
2023-04-26T10:43:26.618Z,13.40
2023-04-26T10:45:56.807Z,13.60
2023-04-26T10:48:31.789Z,13.70
2023-04-26T10:51:12.721Z,13.60
2023-04-26T10:53:59.083Z,13.50
2023-04-26T10:56:46.408Z,13.10
2023-04-26T11:01:47.030Z,12.60
2023-04-26T11:04:15.159Z,12.70
2023-04-26T11:06:52.055Z,12.90
2023-04-26T11:09:37.074Z,13.20
2023-04-26T11:12:06.370Z,13.50
2023-04-26T11:14:34.636Z,13.60
2023-04-26T11:17:06.467Z,13.90
2023-04-26T11:19:34.459Z,14.20
2023-04-26T11:22:07.717Z,14.10
2023-04-26T11:24:36.941Z,13.90
2023-04-26T11:27:09.945Z,13.60
2023-04-26T11:29:38.032Z,13.50
2023-04-26T11:32:07.210Z,13.40
2023-04-26T11:34:35.680Z,13.10
2023-04-26T11:37:06.106Z,12.90
2023-04-26T11:39:34.455Z,12.50
2023-04-26T11:42:06.875Z,12.40
2023-04-26T11:44:35.492Z,12.30
2023-04-26T11:47:05.244Z,12.40
2023-04-26T11:49:33.906Z,12.40
2023-04-26T11:52:02.546Z,12.70
2023-04-26T11:54:32.463Z,12.90
2023-04-26T11:57:01.021Z,13.10
2023-04-26T11:59:29.617Z,13.50
2023-04-26T12:01:58.577Z,13.90
2023-04-26T12:04:30.755Z,14.20
2023-04-26T12:06:59.976Z,14.50
2023-04-26T12:09:28.587Z,14.40
2023-04-26T12:12:00.942Z,14.00
2023-04-26T12:14:32.645Z,13.80
2023-04-26T12:17:02.339Z,13.60
2023-04-26T12:19:30.606Z,13.50
2023-04-26T12:21:58.933Z,13.60
2023-04-26T12:24:29.769Z,13.60
2023-04-26T12:27:02.991Z,13.50
2023-04-26T12:29:31.969Z,13.30
2023-04-26T12:32:00.835Z,13.20
2023-04-26T12:34:29.335Z,13.10
2023-04-26T12:36:58.305Z,12.90
2023-04-26T12:39:26.325Z,12.90
2023-04-26T12:41:55.198Z,13.10
2023-04-26T12:44:24.665Z,13.30
2023-04-26T12:46:53.051Z,13.30
2023-04-26T12:49:21.139Z,13.10
2023-04-26T12:51:49.547Z,12.90
2023-04-26T12:54:17.567Z,12.80
2023-04-26T12:56:46.440Z,12.60
2023-04-26T12:59:14.792Z,12.30
2023-04-26T13:01:44.557Z,12.00
2023-04-26T13:04:12.780Z,11.90
2023-04-26T13:06:41.415Z,11.90
2023-04-26T13:09:09.678Z,12.10
2023-04-26T13:11:38.518Z,12.40
2023-04-26T13:14:07.576Z,12.80
2023-04-26T13:16:36.235Z,13.00
2023-04-26T13:19:06.406Z,13.30
2023-04-26T13:21:35.270Z,13.20
2023-04-26T13:24:03.421Z,13.20
2023-04-26T13:26:32.490Z,13.30
2023-04-26T13:29:00.537Z,13.20
2023-04-26T13:31:28.978Z,13.00
2023-04-26T13:33:57.033Z,13.10
2023-04-26T13:36:28.403Z,13.10
2023-04-26T13:38:56.417Z,12.80
2023-04-26T13:41:25.239Z,12.70
2023-04-26T13:43:53.238Z,12.50
2023-04-26T13:46:21.611Z,12.50
2023-04-26T13:48:49.603Z,12.60
2023-04-26T13:51:18.299Z,12.50
2023-04-26T13:53:47.640Z,12.50
2023-04-26T13:56:16.017Z,12.50
2023-04-26T13:58:44.661Z,12.40
2023-04-26T14:01:14.418Z,12.40
2023-04-26T14:03:42.970Z,12.40
2023-04-26T14:06:11.814Z,12.50
2023-04-26T14:08:39.777Z,12.50
2023-04-26T14:11:11.571Z,12.60
2023-04-26T14:13:39.775Z,12.60
2023-04-26T14:16:08.422Z,12.60
2023-04-26T14:18:36.547Z,12.70
2023-04-26T14:21:05.374Z,12.70
2023-04-26T14:23:33.433Z,12.60
2023-04-26T14:26:01.953Z,12.60
2023-04-26T14:28:31.414Z,12.60
2023-04-26T14:31:00.226Z,12.70
2023-04-26T14:33:28.407Z,12.70
2023-04-26T14:35:56.520Z,12.60
2023-04-26T14:38:25.564Z,12.50
2023-04-26T14:40:53.593Z,12.40
2023-04-26T14:43:21.612Z,12.30
2023-04-26T14:45:51.979Z,12.20
2023-04-26T14:48:20.291Z,12.10
2023-04-26T14:50:48.746Z,12.10
2023-04-26T14:53:16.788Z,12.00
2023-04-26T14:55:45.611Z,12.00
2023-04-26T14:58:13.613Z,12.00
2023-04-26T15:00:43.091Z,11.80
2023-04-26T15:03:12.576Z,11.70
2023-04-26T15:05:41.690Z,11.50
2023-04-26T15:08:09.769Z,11.30
2023-04-26T15:10:38.473Z,11.30
2023-04-26T15:13:06.638Z,11.20
2023-04-26T15:15:35.517Z,11.20
2023-04-26T15:18:03.606Z,11.30
2023-04-26T15:20:33.412Z,11.40
2023-04-26T15:23:01.439Z,11.40
2023-04-26T15:25:30.157Z,11.40
2023-04-26T15:27:58.144Z,11.50
2023-04-26T15:30:27.354Z,11.50
2023-04-26T15:32:55.381Z,11.50
2023-04-26T15:35:25.326Z,11.50
2023-04-26T15:37:54.805Z,11.50
2023-04-26T15:40:24.536Z,11.50
2023-04-26T15:42:52.554Z,11.60
2023-04-26T15:45:21.420Z,11.50
2023-04-26T15:47:49.494Z,11.60
2023-04-26T15:50:18.256Z,11.50
2023-04-26T15:52:46.438Z,11.40
2023-04-26T15:55:16.865Z,11.30
2023-04-26T15:57:44.946Z,11.20
2023-04-26T16:00:14.610Z,11.10
2023-04-26T16:02:44.709Z,11.00
2023-04-26T16:05:13.638Z,10.90
2023-04-26T16:07:41.773Z,10.90
2023-04-26T16:10:10.833Z,10.80
2023-04-26T16:12:42.224Z,10.80
2023-04-26T16:15:11.273Z,10.70
2023-04-26T16:17:39.676Z,10.60
2023-04-26T16:20:17.533Z,10.60
2023-04-26T16:23:12.048Z,10.60
2023-04-26T16:25:49.440Z,10.70
2023-04-26T16:28:45.887Z,10.70
2023-04-26T16:31:28.586Z,10.70
2023-04-26T16:34:13.670Z,10.70
2023-04-26T16:36:46.967Z,10.70
2023-04-26T16:39:16.496Z,10.60
2023-04-26T16:41:45.260Z,10.60
2023-04-26T16:44:16.428Z,10.60
2023-04-26T16:46:44.505Z,10.50
2023-04-26T16:49:13.328Z,10.40
2023-04-26T16:51:44.367Z,10.40
2023-04-26T16:54:12.958Z,10.30
2023-04-26T16:56:41.367Z,10.30
2023-04-26T16:59:09.784Z,10.20
2023-04-26T17:01:39.202Z,10.30
2023-04-26T17:04:09.062Z,10.20
2023-04-26T17:06:38.720Z,10.30
2023-04-26T17:09:08.340Z,10.20
2023-04-26T17:11:37.505Z,10.30
2023-04-26T17:14:06.279Z,10.30
2023-04-26T17:16:34.725Z,10.30
2023-04-26T17:19:04.170Z,10.20
2023-04-26T17:21:32.332Z,10.20
2023-04-26T17:24:00.970Z,10.20
2023-04-26T17:26:29.024Z,10.10
2023-04-26T17:28:58.105Z,10.10
2023-04-26T17:31:26.331Z,10.00
2023-04-26T17:33:55.133Z,9.90
2023-04-26T17:36:24.723Z,9.90
2023-04-26T17:38:53.601Z,9.80
2023-04-26T17:41:22.994Z,9.80
2023-04-26T17:43:51.483Z,9.80
2023-04-26T17:46:19.527Z,9.70
2023-04-26T17:48:47.963Z,9.50
2023-04-26T17:51:16.191Z,9.30
2023-04-26T17:53:46.380Z,9.10
2023-04-26T17:56:14.393Z,9.00
2023-04-26T17:58:42.916Z,8.80
2023-04-26T18:01:10.960Z,8.70
2023-04-26T18:03:40.316Z,8.50
2023-04-26T18:06:08.554Z,8.40
2023-04-26T18:08:37.889Z,8.20
2023-04-26T18:11:07.426Z,8.10
2023-04-26T18:13:36.457Z,8.00
2023-04-26T18:16:04.554Z,7.90
2023-04-26T18:18:33.033Z,7.80
2023-04-26T18:21:01.071Z,7.70
2023-04-26T18:23:29.814Z,7.60
2023-04-26T18:25:57.938Z,7.60
2023-04-26T18:28:27.961Z,7.50
2023-04-26T18:30:57.423Z,7.40
2023-04-26T18:33:26.472Z,7.40
2023-04-26T18:35:54.629Z,7.40
2023-04-26T18:38:23.035Z,7.30
2023-04-26T18:40:51.303Z,7.20
2023-04-26T18:43:20.447Z,7.20
2023-04-26T18:45:50.210Z,7.20
2023-04-26T18:48:19.109Z,7.10
2023-04-26T18:50:51.129Z,7.10
2023-04-26T18:53:19.841Z,7.00
2023-04-26T18:55:48.219Z,7.00
2023-04-26T18:58:17.054Z,6.90
2023-04-26T19:00:45.100Z,6.80
2023-04-26T19:03:15.052Z,6.70
2023-04-26T19:05:43.324Z,6.70
2023-04-26T19:08:12.319Z,6.60
2023-04-26T19:10:40.407Z,6.60
2023-04-26T19:13:08.794Z,6.50
2023-04-26T19:15:36.836Z,6.50
2023-04-26T19:18:05.792Z,6.40
2023-04-26T19:20:35.273Z,6.40
2023-04-26T19:23:03.645Z,6.40
2023-04-26T19:25:31.663Z,6.30
2023-04-26T19:28:00.479Z,6.30
2023-04-26T19:30:28.530Z,6.20
2023-04-26T19:32:57.280Z,6.20
2023-04-26T19:35:25.478Z,6.10
2023-04-26T19:37:55.672Z,6.10
2023-04-26T19:40:24.139Z,6.10
2023-04-26T19:42:53.023Z,6.10
2023-04-26T19:45:21.493Z,6.10
2023-04-26T19:47:50.077Z,6.20
2023-04-26T19:50:18.374Z,6.10
2023-04-26T19:52:47.328Z,6.10
2023-04-26T19:55:16.723Z,6.10
2023-04-26T19:57:45.126Z,6.10
2023-04-26T20:00:16.593Z,6.10
2023-04-26T20:02:45.411Z,6.00
2023-04-26T20:05:13.696Z,6.00
2023-04-26T20:07:42.621Z,5.90
2023-04-26T20:10:11.200Z,5.90
2023-04-26T20:12:41.971Z,5.80
2023-04-26T20:15:12.075Z,5.80
2023-04-26T20:17:40.633Z,5.80
2023-04-26T20:20:09.572Z,5.80
2023-04-26T20:22:38.118Z,5.80
2023-04-26T20:25:06.491Z,5.70
2023-04-26T20:27:34.984Z,5.70
2023-04-26T20:30:05.527Z,5.70
2023-04-26T20:32:33.914Z,5.70
2023-04-26T20:35:01.971Z,5.60
2023-04-26T20:37:30.060Z,5.60
2023-04-26T20:39:58.546Z,5.60
2023-04-26T20:42:27.692Z,5.60
2023-04-26T20:44:56.635Z,5.50
2023-04-26T20:47:26.163Z,5.50
2023-04-26T20:49:54.301Z,5.40
2023-04-26T20:52:22.735Z,5.50
2023-04-26T20:54:50.804Z,5.50
2023-04-26T20:57:19.423Z,5.40
2023-04-26T20:59:47.510Z,5.40
2023-04-26T21:02:17.742Z,5.40
2023-04-26T21:04:47.276Z,5.40
2023-04-26T21:07:15.991Z,5.40
2023-04-26T21:09:43.986Z,5.40
2023-04-26T21:12:12.364Z,5.30
2023-04-26T21:14:40.908Z,5.30
2023-04-26T21:17:09.484Z,5.30
2023-04-26T21:19:37.518Z,5.30
2023-04-26T21:22:07.351Z,5.30
2023-04-26T21:24:35.757Z,5.20
2023-04-26T21:27:03.956Z,5.20
2023-04-26T21:29:32.849Z,5.20
2023-04-26T21:32:00.862Z,5.10
2023-04-26T21:34:29.751Z,5.10
2023-04-26T21:36:57.824Z,5.00
2023-04-26T21:39:27.913Z,5.00
2023-04-26T21:41:55.966Z,4.90
2023-04-26T21:44:24.254Z,4.90
2023-04-26T21:46:52.456Z,4.90
2023-04-26T21:49:21.374Z,4.90
2023-04-26T21:51:49.413Z,4.80
2023-04-26T21:54:17.989Z,4.80
2023-04-26T21:56:47.465Z,4.80
2023-04-26T21:59:15.876Z,4.70
2023-04-26T22:01:44.127Z,4.70
2023-04-26T22:04:12.993Z,4.80
2023-04-26T22:06:41.243Z,4.70
2023-04-26T22:09:10.549Z,4.70
2023-04-26T22:11:38.775Z,4.70
2023-04-26T22:14:08.693Z,4.70
2023-04-26T22:16:36.780Z,4.60
2023-04-26T22:19:05.732Z,4.60
2023-04-26T22:21:33.710Z,4.60
2023-04-26T22:24:02.617Z,4.50
2023-04-26T22:26:30.671Z,4.50
2023-04-26T22:28:59.075Z,4.50
2023-04-26T22:31:28.459Z,4.40
2023-04-26T22:33:56.552Z,4.40
2023-04-26T22:36:25.179Z,4.30
2023-04-26T22:38:53.170Z,4.30
2023-04-26T22:41:22.117Z,4.20
2023-04-26T22:43:51.595Z,4.20
2023-04-26T22:46:21.709Z,4.20
2023-04-26T22:48:51.108Z,4.20
2023-04-26T22:51:19.409Z,4.20
2023-04-26T22:53:47.451Z,4.20
2023-04-26T22:56:15.777Z,4.10
2023-04-26T22:58:43.861Z,4.20
2023-04-26T23:01:12.262Z,4.10
2023-04-26T23:03:40.609Z,4.20
2023-04-26T23:06:10.207Z,4.10
2023-04-26T23:08:38.602Z,4.10
2023-04-26T23:11:08.419Z,4.10
2023-04-26T23:13:38.388Z,4.00
2023-04-26T23:16:06.796Z,4.00
2023-04-26T23:18:35.285Z,4.00
2023-04-26T23:21:03.671Z,4.00
2023-04-26T23:23:33.403Z,4.00
2023-04-26T23:26:01.773Z,4.00
2023-04-26T23:28:30.199Z,3.90
2023-04-26T23:30:58.323Z,4.00
2023-04-26T23:33:26.991Z,3.90
2023-04-26T23:35:55.803Z,4.00
2023-04-26T23:38:24.282Z,4.10
2023-04-26T23:40:53.944Z,4.00
2023-04-26T23:43:22.365Z,4.10
2023-04-26T23:45:50.769Z,4.10
2023-04-26T23:48:18.844Z,4.00
2023-04-26T23:50:47.192Z,4.00
2023-04-26T23:53:15.556Z,4.10
2023-04-26T23:55:43.566Z,4.10
2023-04-26T23:58:12.951Z,4.10
